Time;durP1;ratioP1;P1;durP2;ratioP2;P2;SDS_P1;SDS_P2;PMS_P1;PMS_P2;Temp;Humidity;BMP_temperature;BMP_pressure;BME280_temperature;BME280_humidity;BME280_pressure;Samples;Min_cycle;Max_cycle;Signal;HPM_P1;HPM_P2
2021/07/30 00:01:12;;;;;;;3.10;2.80;;;16.40;99.90;;;;;;5072341;28;20291;-63
2021/07/30 00:03:42;;;;;;;4.40;3.28;;;16.40;99.90;;;;;;5071506;28;20672;-63
2021/07/30 00:06:26;;;;;;;6.40;3.15;;;16.40;99.90;;;;;;5071309;28;20652;-62
2021/07/30 00:08:54;;;;;;;4.88;3.20;;;16.40;99.90;;;;;;5071597;28;20283;-63
2021/07/30 00:11:22;;;;;;;4.50;3.40;;;16.30;99.90;;;;;;5071303;28;20620;-63
2021/07/30 00:13:50;;;;;;;4.90;3.30;;;16.30;99.90;;;;;;5071233;28;20230;-63
2021/07/30 00:16:17;;;;;;;3.92;2.75;;;16.30;99.90;;;;;;5071668;28;20232;-64
2021/07/30 00:18:47;;;;;;;4.63;3.22;;;16.30;99.90;;;;;;5072023;28;20200;-65
2021/07/30 00:21:15;;;;;;;4.20;3.15;;;16.30;99.90;;;;;;5075224;28;20222;-64
2021/07/30 00:23:42;;;;;;;3.05;2.75;;;16.20;99.90;;;;;;5075292;28;20208;-65
2021/07/30 00:26:10;;;;;;;3.65;3.20;;;16.20;99.90;;;;;;5075256;28;20193;-64
2021/07/30 00:28:38;;;;;;;5.05;2.92;;;16.20;99.90;;;;;;5074983;28;20220;-64
2021/07/30 00:31:06;;;;;;;4.00;2.90;;;16.30;99.90;;;;;;5079781;28;20228;-65
2021/07/30 00:33:34;;;;;;;4.35;2.97;;;16.30;99.90;;;;;;5081054;28;20205;-63
2021/07/30 00:36:04;;;;;;;3.22;2.92;;;16.30;99.90;;;;;;5079150;28;20231;-63
2021/07/30 00:38:31;;;;;;;3.08;2.78;;;16.30;99.90;;;;;;5074890;28;20205;-63
2021/07/30 00:41:00;;;;;;;3.88;3.38;;;16.30;99.90;;;;;;5074851;28;20207;-64
2021/07/30 00:43:28;;;;;;;6.38;3.28;;;16.20;99.90;;;;;;5074279;28;20319;-63
2021/07/30 00:45:57;;;;;;;4.70;3.10;;;16.20;99.90;;;;;;5074470;28;20228;-65
2021/07/30 00:48:25;;;;;;;4.80;3.15;;;16.10;99.90;;;;;;5074441;28;20736;-64
2021/07/30 00:50:54;;;;;;;3.13;2.92;;;16.10;99.90;;;;;;5074293;28;20200;-63
2021/07/30 00:53:24;;;;;;;3.05;2.67;;;16.10;99.90;;;;;;5074477;28;20211;-63
2021/07/30 00:55:53;;;;;;;4.30;3.00;;;16.10;99.90;;;;;;5074271;28;20223;-64
2021/07/30 00:58:21;;;;;;;3.25;2.95;;;16.10;99.90;;;;;;5074470;28;20264;-64
2021/07/30 01:00:49;;;;;;;4.65;3.53;;;16.10;99.90;;;;;;5074059;28;20675;-64
2021/07/30 01:03:17;;;;;;;3.80;3.08;;;16.10;99.90;;;;;;5074465;28;20216;-63
2021/07/30 01:05:46;;;;;;;5.28;2.83;;;16.10;99.90;;;;;;5074350;28;20211;-63
2021/07/30 01:08:14;;;;;;;3.45;3.13;;;16.10;99.90;;;;;;5074369;28;20196;-63
2021/07/30 01:10:43;;;;;;;4.38;2.90;;;16.10;99.90;;;;;;5074098;28;20197;-63
2021/07/30 01:13:11;;;;;;;5.13;2.90;;;16.10;99.90;;;;;;5073915;28;20863;-63
2021/07/30 01:15:39;;;;;;;4.05;3.05;;;16.00;99.90;;;;;;5074004;28;20221;-65
2021/07/30 01:18:07;;;;;;;4.82;2.75;;;16.00;99.90;;;;;;5074287;28;20197;-63
2021/07/30 01:20:38;;;;;;;3.78;3.15;;;16.00;99.90;;;;;;5074099;28;20199;-63
2021/07/30 01:23:10;;;;;;;5.07;2.80;;;16.00;99.90;;;;;;5073933;28;20679;-63
2021/07/30 01:25:38;;;;;;;3.60;2.88;;;16.00;99.90;;;;;;5074026;28;20181;-63
2021/07/30 01:28:06;;;;;;;3.83;2.90;;;16.00;99.90;;;;;;5073889;28;20199;-63
2021/07/30 01:30:34;;;;;;;4.13;3.55;;;16.00;99.90;;;;;;5073222;28;20283;-63
2021/07/30 01:33:02;;;;;;;3.65;3.35;;;16.00;99.90;;;;;;5073859;28;20201;-64
2021/07/30 01:35:30;;;;;;;4.68;3.38;;;16.00;99.90;;;;;;5073734;28;20205;-63
2021/07/30 01:37:57;;;;;;;4.80;2.90;;;16.10;99.90;;;;;;5073465;28;20224;-63
2021/07/30 01:40:27;;;;;;;4.07;3.13;;;16.10;99.90;;;;;;5073455;28;20798;-63
2021/07/30 01:42:54;;;;;;;3.22;2.90;;;16.00;99.90;;;;;;5073297;28;20218;-64
2021/07/30 01:45:22;;;;;;;3.40;3.10;;;16.00;99.90;;;;;;5073505;28;20558;-63
2021/07/30 01:47:51;;;;;;;3.08;2.70;;;16.00;99.90;;;;;;5073641;28;20209;-64
2021/07/30 01:50:19;;;;;;;2.95;2.63;;;16.00;99.90;;;;;;5073461;28;20261;-63
2021/07/30 01:52:47;;;;;;;4.22;2.83;;;15.90;99.90;;;;;;5073176;28;20685;-64
2021/07/30 01:55:15;;;;;;;4.10;2.78;;;16.00;99.90;;;;;;5073240;28;20207;-63
2021/07/30 01:57:44;;;;;;;3.15;2.92;;;15.90;99.90;;;;;;5072891;28;20230;-63
2021/07/30 02:00:13;;;;;;;6.28;3.20;;;15.80;99.90;;;;;;5072879;28;20211;-63
2021/07/30 02:02:41;;;;;;;3.85;3.05;;;15.80;99.90;;;;;;5072824;28;20554;-64
2021/07/30 02:05:10;;;;;;;3.60;3.30;;;15.90;99.90;;;;;;5072982;28;20679;-63
2021/07/30 02:07:38;;;;;;;4.13;2.70;;;15.90;99.90;;;;;;5072840;28;20292;-63
2021/07/30 02:10:07;;;;;;;5.75;3.38;;;15.90;99.90;;;;;;5073129;28;20222;-62
2021/07/30 02:14:14;;;;;;;3.35;3.05;;;15.90;99.90;;;;;;5072601;28;20566;-64
2021/07/30 02:15:24;;;;;;;4.25;3.30;;;15.90;99.90;;;;;;5072902;28;20232;-63
2021/07/30 02:17:51;;;;;;;4.65;3.30;;;15.90;99.90;;;;;;5072917;28;20655;-64
2021/07/30 02:20:19;;;;;;;3.30;2.97;;;15.80;99.90;;;;;;5073018;28;20204;-64
2021/07/30 02:22:47;;;;;;;3.13;2.83;;;15.80;99.90;;;;;;5072469;28;20211;-64
2021/07/30 02:25:15;;;;;;;3.50;3.20;;;15.70;99.90;;;;;;5072810;28;20203;-63
2021/07/30 02:27:43;;;;;;;3.42;3.00;;;15.70;99.90;;;;;;5072690;28;20288;-64
2021/07/30 02:30:11;;;;;;;4.25;3.20;;;15.70;99.90;;;;;;5072706;28;20205;-64
2021/07/30 02:32:40;;;;;;;3.33;3.00;;;15.60;99.90;;;;;;5072720;28;20201;-64
2021/07/30 02:35:09;;;;;;;3.70;3.30;;;15.50;99.90;;;;;;5072394;28;20724;-63
2021/07/30 02:37:37;;;;;;;3.80;3.20;;;15.50;99.90;;;;;;5072116;28;20281;-64
2021/07/30 02:40:06;;;;;;;4.47;3.40;;;15.50;99.90;;;;;;5072663;28;20232;-64
2021/07/30 02:42:34;;;;;;;3.50;3.10;;;15.50;99.90;;;;;;5071321;28;20240;-63
2021/07/30 02:45:03;;;;;;;3.75;3.25;;;15.40;99.90;;;;;;5072077;28;20243;-62
2021/07/30 02:47:30;;;;;;;5.18;3.60;;;15.40;99.90;;;;;;5072056;28;20291;-63
2021/07/30 02:50:00;;;;;;;5.32;3.40;;;15.30;99.90;;;;;;5072178;28;20207;-63
2021/07/30 02:52:27;;;;;;;4.05;3.00;;;15.30;99.90;;;;;;5072489;28;20200;-63
2021/07/30 02:54:56;;;;;;;5.07;3.70;;;15.30;99.90;;;;;;5072414;28;20204;-63
2021/07/30 02:57:24;;;;;;;5.10;3.53;;;15.30;99.90;;;;;;5072184;28;20227;-63
2021/07/30 02:59:52;;;;;;;3.92;3.10;;;15.20;99.90;;;;;;5072257;28;20196;-63
2021/07/30 03:02:19;;;;;;;7.35;3.78;;;15.20;99.90;;;;;;5072283;28;20207;-63
2021/07/30 03:04:47;;;;;;;5.30;3.70;;;15.30;99.90;;;;;;5072187;28;20201;-63
2021/07/30 03:07:16;;;;;;;3.50;3.20;;;15.40;99.90;;;;;;5072237;28;20216;-63
2021/07/30 03:09:44;;;;;;;4.20;3.80;;;15.40;99.90;;;;;;5071973;28;20205;-63
2021/07/30 03:12:12;;;;;;;4.65;3.75;;;15.50;99.90;;;;;;5072081;28;20268;-64
2021/07/30 03:14:40;;;;;;;4.18;3.63;;;15.50;99.90;;;;;;5072078;28;20200;-63
2021/07/30 03:17:08;;;;;;;5.32;3.55;;;15.40;99.90;;;;;;5071874;28;20227;-64
2021/07/30 03:19:36;;;;;;;4.43;3.45;;;15.40;99.90;;;;;;5071887;28;20685;-63
2021/07/30 03:22:04;;;;;;;4.28;3.28;;;15.40;99.90;;;;;;5072058;28;20197;-64
2021/07/30 03:24:33;;;;;;;4.57;3.63;;;15.40;99.90;;;;;;5071849;28;20200;-63
2021/07/30 03:27:01;;;;;;;4.10;3.65;;;15.30;99.90;;;;;;5071846;28;20755;-63
2021/07/30 03:29:29;;;;;;;7.60;3.72;;;15.30;99.90;;;;;;5071514;28;20720;-63
2021/07/30 03:31:57;;;;;;;4.10;3.70;;;15.30;99.90;;;;;;5071954;28;20222;-63
2021/07/30 03:34:25;;;;;;;4.28;3.60;;;15.30;99.90;;;;;;5072022;28;20700;-64
2021/07/30 03:36:53;;;;;;;4.85;3.80;;;15.30;99.90;;;;;;5071609;28;20224;-63
2021/07/30 03:39:21;;;;;;;5.47;3.35;;;15.30;99.90;;;;;;5071971;28;20284;-63
2021/07/30 03:41:50;;;;;;;5.85;3.78;;;15.30;99.90;;;;;;5071953;28;20329;-63
2021/07/30 03:44:18;;;;;;;4.30;3.90;;;15.30;99.90;;;;;;5071249;28;20243;-63
2021/07/30 03:46:46;;;;;;;5.28;3.67;;;15.30;99.90;;;;;;5071699;28;20740;-64
2021/07/30 03:49:13;;;;;;;4.38;3.80;;;15.30;99.90;;;;;;5071797;28;20284;-64
2021/07/30 03:51:41;;;;;;;4.30;3.90;;;15.40;99.90;;;;;;5071629;28;20201;-63
2021/07/30 03:54:09;;;;;;;5.18;4.28;;;15.50;99.90;;;;;;5072721;28;20197;-63
2021/07/30 03:56:39;;;;;;;4.13;3.72;;;15.60;99.90;;;;;;5075465;28;20291;-63
2021/07/30 03:59:09;;;;;;;4.88;3.97;;;15.50;99.90;;;;;;5075335;28;20201;-63
2021/07/30 04:01:37;;;;;;;5.80;4.00;;;15.50;99.90;;;;;;5075573;28;20299;-64
2021/07/30 04:04:05;;;;;;;4.90;3.70;;;15.50;99.90;;;;;;5075492;28;20200;-63
2021/07/30 04:06:33;;;;;;;6.07;3.70;;;15.60;99.90;;;;;;5075302;28;20205;-64
2021/07/30 04:09:02;;;;;;;7.35;3.90;;;15.60;99.90;;;;;;5075398;28;20199;-63
2021/07/30 04:11:29;;;;;;;4.38;3.58;;;15.60;99.90;;;;;;5075575;28;20295;-64
2021/07/30 04:13:57;;;;;;;4.30;3.90;;;15.60;99.90;;;;;;5075082;28;20193;-64
2021/07/30 04:16:28;;;;;;;5.30;4.10;;;15.60;99.90;;;;;;5075088;28;20235;-63
2021/07/30 04:18:55;;;;;;;5.60;4.40;;;15.60;99.90;;;;;;5074803;28;20603;-64
2021/07/30 04:21:23;;;;;;;4.75;4.03;;;15.60;99.90;;;;;;5075052;28;20207;-64
2021/07/30 04:23:51;;;;;;;4.45;4.00;;;15.60;99.90;;;;;;5075064;28;20207;-63
2021/07/30 04:26:19;;;;;;;4.45;3.90;;;15.70;99.90;;;;;;5074633;28;20298;-64
2021/07/30 04:28:47;;;;;;;5.57;4.15;;;15.70;99.90;;;;;;5074308;28;20665;-65
2021/07/30 04:31:15;;;;;;;4.43;3.80;;;15.70;99.90;;;;;;5074616;28;20618;-64
2021/07/30 04:33:44;;;;;;;4.68;3.67;;;15.70;99.90;;;;;;5074875;28;20263;-64
2021/07/30 04:36:15;;;;;;;5.85;4.05;;;15.80;99.90;;;;;;5074551;28;20197;-64
2021/07/30 04:38:43;;;;;;;4.55;3.97;;;15.80;99.90;;;;;;5075272;28;20316;-63
2021/07/30 04:41:11;;;;;;;5.15;4.18;;;15.90;99.90;;;;;;5075155;28;20626;-65
2021/07/30 04:43:39;;;;;;;5.07;3.83;;;16.00;99.90;;;;;;5074684;28;20677;-64
2021/07/30 04:46:15;;;;;;;4.65;3.60;;;16.00;99.90;;;;;;5075250;28;20204;-63
2021/07/30 04:48:44;;;;;;;4.95;4.00;;;16.10;99.90;;;;;;5075012;28;20191;-64
2021/07/30 04:51:13;;;;;;;3.95;3.58;;;16.20;99.90;;;;;;5074977;28;20295;-64
2021/07/30 04:53:40;;;;;;;7.47;3.85;;;16.30;99.90;;;;;;5074967;28;20677;-64
2021/07/30 04:56:16;;;;;;;6.32;3.95;;;16.30;99.90;;;;;;5074872;28;20793;-64
2021/07/30 04:58:44;;;;;;;4.72;3.63;;;16.40;99.90;;;;;;5074615;28;20659;-65
2021/07/30 05:01:11;;;;;;;6.30;4.30;;;16.50;99.90;;;;;;5075170;28;20201;-64
2021/07/30 05:03:40;;;;;;;4.45;4.05;;;16.70;99.90;;;;;;5074640;28;20729;-64
2021/07/30 05:06:16;;;;;;;4.72;3.65;;;17.40;99.90;;;;;;5073910;28;20196;-64
2021/07/30 05:08:44;;;;;;;4.70;3.05;;;18.50;99.90;;;;;;5074777;28;20276;-64
2021/07/30 05:11:13;;;;;;;5.63;3.17;;;19.90;99.90;;;;;;5074463;28;20644;-64
2021/07/30 05:13:41;;;;;;;3.40;2.90;;;21.00;99.90;;;;;;5074339;28;20326;-64
2021/07/30 05:16:10;;;;;;;5.78;3.30;;;21.80;99.90;;;;;;5074822;28;20201;-65
2021/07/30 05:18:38;;;;;;;5.57;3.10;;;22.40;99.90;;;;;;5074670;28;20231;-64
2021/07/30 05:21:07;;;;;;;3.50;3.20;;;23.00;99.90;;;;;;5074720;28;20204;-64
2021/07/30 05:23:36;;;;;;;3.83;2.95;;;22.60;99.90;;;;;;5076365;28;20205;-65
2021/07/30 05:26:04;;;;;;;5.25;3.40;;;22.30;99.90;;;;;;5079216;28;20264;-66
2021/07/30 05:28:34;;;;;;;4.75;3.08;;;22.00;99.90;;;;;;5079665;28;20201;-65
2021/07/30 05:31:02;;;;;;;5.15;3.10;;;21.80;99.90;;;;;;5076866;28;20290;-64
2021/07/30 05:33:31;;;;;;;5.35;3.25;;;21.70;99.90;;;;;;5074607;28;20303;-64
2021/07/30 05:35:59;;;;;;;4.47;2.80;;;21.20;99.90;;;;;;5074418;28;20207;-63
2021/07/30 05:38:26;;;;;;;3.50;3.20;;;20.80;99.90;;;;;;5074358;28;20251;-65
2021/07/30 05:40:55;;;;;;;3.78;3.03;;;20.50;99.90;;;;;;5074269;28;20295;-64
2021/07/30 05:43:23;;;;;;;4.85;3.67;;;20.30;99.90;;;;;;5073633;28;20340;-65
2021/07/30 05:45:52;;;;;;;4.53;3.25;;;20.20;99.90;;;;;;5073825;28;20181;-64
2021/07/30 05:48:19;;;;;;;3.10;2.88;;;20.00;99.90;;;;;;5073861;28;20227;-64
2021/07/30 05:50:49;;;;;;;3.72;3.40;;;20.00;99.90;;;;;;5073825;28;20284;-65
2021/07/30 05:53:16;;;;;;;4.10;3.45;;;19.90;99.90;;;;;;5073993;28;20342;-64
2021/07/30 05:55:44;;;;;;;3.80;2.97;;;19.90;99.90;;;;;;5074092;28;20200;-65
2021/07/30 05:58:13;;;;;;;6.72;3.10;;;19.90;99.90;;;;;;5073711;28;20217;-64
2021/07/30 06:00:41;;;;;;;4.15;3.05;;;19.90;99.90;;;;;;5073690;28;20315;-65
2021/07/30 06:03:09;;;;;;;6.10;3.20;;;20.00;99.90;;;;;;5072945;28;20193;-64
2021/07/30 06:05:37;;;;;;;4.75;3.40;;;20.00;99.90;;;;;;5062563;28;20193;-65
2021/07/30 06:08:06;;;;;;;3.33;2.90;;;20.00;99.90;;;;;;5073690;28;20201;-66
2021/07/30 06:10:34;;;;;;;4.82;3.03;;;19.90;99.90;;;;;;5073550;28;20285;-65
2021/07/30 06:13:02;;;;;;;3.28;2.70;;;20.10;99.90;;;;;;5073587;28;20208;-64
2021/07/30 06:15:31;;;;;;;3.17;2.85;;;20.20;99.90;;;;;;5073307;28;20287;-65
2021/07/30 06:18:01;;;;;;;3.67;2.85;;;20.30;99.90;;;;;;5073072;28;20295;-65
2021/07/30 06:20:30;;;;;;;3.78;3.28;;;20.40;99.90;;;;;;5073260;28;20742;-65
2021/07/30 06:22:58;;;;;;;4.75;3.28;;;20.60;99.90;;;;;;5073456;28;20224;-64
2021/07/30 06:25:26;;;;;;;5.03;4.05;;;20.70;99.90;;;;;;5073371;28;20197;-65
2021/07/30 06:27:54;;;;;;;7.38;5.10;;;20.80;99.90;;;;;;5073180;28;20255;-66
2021/07/30 06:30:22;;;;;;;5.65;4.55;;;20.90;99.90;;;;;;5073045;28;20227;-63
2021/07/30 06:32:51;;;;;;;5.65;4.40;;;20.80;99.90;;;;;;5073150;28;20205;-65
2021/07/30 06:35:20;;;;;;;4.25;2.90;;;20.90;99.90;;;;;;5072824;28;20287;-64
2021/07/30 06:37:48;;;;;;;4.15;2.97;;;20.80;99.90;;;;;;5072595;28;20211;-65
2021/07/30 06:40:16;;;;;;;5.07;2.78;;;20.80;99.90;;;;;;5072564;28;20220;-65
2021/07/30 06:42:44;;;;;;;3.03;2.63;;;20.80;99.90;;;;;;5072193;28;20620;-64
2021/07/30 06:45:11;;;;;;;5.32;2.65;;;21.00;99.90;;;;;;5071968;28;20244;-66
2021/07/30 06:47:39;;;;;;;5.10;2.90;;;21.00;99.90;;;;;;5072239;28;20602;-64
2021/07/30 06:50:09;;;;;;;5.13;2.85;;;21.10;99.90;;;;;;5072565;28;20196;-64
2021/07/30 06:52:37;;;;;;;3.83;2.67;;;21.20;99.90;;;;;;5072218;28;20204;-64
2021/07/30 06:55:06;;;;;;;3.20;2.63;;;21.20;99.90;;;;;;5072116;28;20725;-64
2021/07/30 06:57:34;;;;;;;3.13;2.65;;;21.30;99.90;;;;;;5072017;28;20192;-65
2021/07/30 07:00:02;;;;;;;3.35;2.55;;;21.10;99.90;;;;;;5071954;28;20313;-65
2021/07/30 07:02:29;;;;;;;4.45;2.67;;;21.10;99.90;;;;;;5072227;28;20206;-65
2021/07/30 07:04:58;;;;;;;7.05;2.65;;;21.20;99.90;;;;;;5072104;28;20201;-64
2021/07/30 07:07:27;;;;;;;4.35;2.63;;;21.30;99.90;;;;;;5071880;28;20215;-65
2021/07/30 07:09:55;;;;;;;3.80;2.35;;;21.40;99.90;;;;;;5072101;28;20219;-64
2021/07/30 07:12:22;;;;;;;9.27;2.88;;;21.40;99.90;;;;;;5071922;28;20207;-64
2021/07/30 07:14:50;;;;;;;4.88;2.83;;;21.40;99.90;;;;;;5071687;28;20209;-63
2021/07/30 07:17:19;;;;;;;4.32;2.58;;;21.30;99.90;;;;;;5072132;28;20196;-64
2021/07/30 07:19:47;;;;;;;6.05;2.28;;;21.30;99.90;;;;;;5071912;28;20208;-65
2021/07/30 07:22:15;;;;;;;4.72;2.40;;;21.30;99.90;;;;;;5071980;28;20222;-64
2021/07/30 07:24:44;;;;;;;4.50;2.53;;;21.40;99.90;;;;;;5072339;28;20196;-65
2021/07/30 07:27:12;;;;;;;5.10;2.70;;;21.40;99.90;;;;;;5072709;28;20208;-65
2021/07/30 07:29:40;;;;;;;3.22;2.63;;;21.40;99.90;;;;;;5074442;28;20203;-65
2021/07/30 07:32:08;;;;;;;4.03;2.47;;;21.40;99.90;;;;;;5076490;28;20813;-63
2021/07/30 07:34:35;;;;;;;4.95;2.40;;;21.50;99.90;;;;;;5076398;28;20208;-65
2021/07/30 07:37:03;;;;;;;4.93;2.47;;;21.60;99.90;;;;;;5076800;28;20203;-65
2021/07/30 07:39:32;;;;;;;2.38;2.17;;;21.60;99.90;;;;;;5076170;28;20256;-65
2021/07/30 07:42:01;;;;;;;2.92;2.38;;;21.60;99.90;;;;;;5076581;28;20283;-65
2021/07/30 07:44:29;;;;;;;3.75;2.20;;;21.60;99.90;;;;;;5075694;28;20327;-64
2021/07/30 07:46:58;;;;;;;2.38;2.10;;;21.50;99.90;;;;;;5076195;28;20751;-65
2021/07/30 07:49:26;;;;;;;4.35;2.30;;;21.60;99.90;;;;;;5076475;28;20270;-67
2021/07/30 07:51:55;;;;;;;3.58;2.35;;;21.70;99.90;;;;;;5076517;28;20254;-65
2021/07/30 07:54:42;;;;;;;4.78;2.45;;;21.70;99.90;;;;;;5076412;28;20272;-64
2021/07/30 07:57:11;;;;;;;3.35;2.35;;;21.80;99.90;;;;;;5076003;28;20215;-65
2021/07/30 07:59:41;;;;;;;3.45;2.63;;;21.70;99.90;;;;;;5075349;28;20315;-65
2021/07/30 08:02:10;;;;;;;3.42;2.40;;;21.90;99.90;;;;;;5076189;28;20202;-65
2021/07/30 08:04:38;;;;;;;4.20;2.47;;;21.90;99.90;;;;;;5076057;28;20623;-65
2021/07/30 08:07:09;;;;;;;4.60;2.47;;;22.00;99.90;;;;;;5075924;28;20317;-64
2021/07/30 08:09:37;;;;;;;3.88;2.30;;;22.00;99.90;;;;;;5075961;28;20562;-65
2021/07/30 08:12:05;;;;;;;3.92;2.58;;;22.10;99.90;;;;;;5075710;28;20781;-64
2021/07/30 08:14:34;;;;;;;4.95;2.40;;;22.10;99.90;;;;;;5075493;28;20258;-64
2021/07/30 08:17:03;;;;;;;5.50;2.42;;;22.00;99.90;;;;;;5075526;28;20577;-65
2021/07/30 08:19:33;;;;;;;2.75;2.05;;;21.90;99.90;;;;;;5075082;28;20300;-64
2021/07/30 08:22:01;;;;;;;5.47;2.33;;;21.80;99.90;;;;;;5075097;28;20549;-65
2021/07/30 08:24:30;;;;;;;3.70;2.30;;;21.90;99.90;;;;;;5075056;28;20201;-64
2021/07/30 08:26:58;;;;;;;3.97;2.38;;;22.00;99.90;;;;;;5074994;28;20200;-65
2021/07/30 08:29:31;;;;;;;3.83;2.15;;;22.10;99.90;;;;;;5074851;28;20181;-66
2021/07/30 08:32:00;;;;;;;3.60;2.13;;;22.20;99.90;;;;;;5075052;28;20288;-64
2021/07/30 08:34:28;;;;;;;4.53;2.50;;;22.40;99.90;;;;;;5075115;28;20197;-65
2021/07/30 08:36:56;;;;;;;5.20;3.00;;;22.40;99.90;;;;;;5074737;28;20708;-65
2021/07/30 08:39:23;;;;;;;2.65;2.40;;;22.50;99.90;;;;;;5075228;28;20295;-66
2021/07/30 08:41:56;;;;;;;3.72;1.95;;;22.50;99.90;;;;;;5073149;28;20251;-65
2021/07/30 08:44:23;;;;;;;4.22;2.50;;;22.50;99.90;;;;;;5074298;28;20224;-64
2021/07/30 08:46:52;;;;;;;4.32;1.90;;;22.70;99.90;;;;;;5074665;28;20196;-64
2021/07/30 08:49:21;;;;;;;4.25;2.40;;;22.70;99.90;;;;;;5074465;28;20196;-64
2021/07/30 08:51:53;;;;;;;3.42;2.28;;;22.90;99.90;;;;;;5074546;28;20616;-65
2021/07/30 08:54:21;;;;;;;3.65;2.67;;;22.90;99.90;;;;;;5074325;28;20556;-64
2021/07/30 08:56:50;;;;;;;3.90;2.13;;;22.90;99.90;;;;;;5074322;28;20197;-65
2021/07/30 08:59:18;;;;;;;4.22;2.13;;;22.90;99.90;;;;;;5073987;28;20201;-65
2021/07/30 09:01:53;;;;;;;3.72;2.08;;;22.90;99.90;;;;;;5073940;28;20222;-65
2021/07/30 09:04:29;;;;;;;4.72;2.17;;;23.10;99.90;;;;;;5074483;28;20227;-66
2021/07/30 09:06:59;;;;;;;3.80;2.13;;;23.10;99.90;;;;;;5074347;28;20216;-65
2021/07/30 09:09:29;;;;;;;2.10;1.90;;;23.20;99.90;;;;;;5074065;28;20728;-66
2021/07/30 09:11:59;;;;;;;4.32;1.95;;;23.30;99.90;;;;;;5074137;28;20291;-65
2021/07/30 09:14:38;;;;;;;2.67;1.83;;;23.20;99.90;;;;;;5073847;28;20197;-63
2021/07/30 09:17:06;;;;;;;3.45;1.88;;;23.40;99.90;;;;;;5074161;28;20185;-65
2021/07/30 09:19:36;;;;;;;3.63;2.08;;;23.30;99.90;;;;;;5073819;28;20219;-66
2021/07/30 09:22:06;;;;;;;3.63;2.20;;;23.30;99.90;;;;;;5073840;28;20200;-64
2021/07/30 09:24:36;;;;;;;2.97;2.10;;;23.30;99.90;;;;;;5073546;28;20207;-65
2021/07/30 09:27:04;;;;;;;3.47;2.00;;;23.50;99.90;;;;;;5073685;28;20200;-64
2021/07/30 09:29:33;;;;;;;1.98;1.83;;;23.60;99.90;;;;;;5073500;28;20588;-66
2021/07/30 09:32:03;;;;;;;3.45;2.03;;;23.60;99.90;;;;;;5073692;28;20696;-65
2021/07/30 09:34:34;;;;;;;3.38;1.70;;;23.50;99.90;;;;;;5073623;28;20201;-65
2021/07/30 09:37:05;;;;;;;2.72;1.80;;;23.70;99.90;;;;;;5073364;28;20196;-65
2021/07/30 09:39:39;;;;;;;8.38;2.20;;;23.60;99.90;;;;;;5073416;28;20758;-66
2021/07/30 09:42:08;;;;;;;4.03;2.20;;;23.50;99.90;;;;;;5073456;28;20225;-66
2021/07/30 09:44:47;;;;;;;4.90;2.20;;;23.50;99.90;;;;;;5072781;28;20254;-65
2021/07/30 09:47:16;;;;;;;3.30;1.88;;;23.60;99.90;;;;;;5073423;28;20231;-65
2021/07/30 09:49:47;;;;;;;2.28;1.70;;;23.60;99.90;;;;;;5073145;28;20250;-65
2021/07/30 09:52:18;;;;;;;4.65;2.28;;;23.70;99.90;;;;;;5072962;28;20615;-64
2021/07/30 09:54:48;;;;;;;4.43;2.17;;;23.70;99.90;;;;;;5073359;28;20268;-64
2021/07/30 09:57:17;;;;;;;5.57;2.30;;;23.80;99.90;;;;;;5073301;28;20291;-65
2021/07/30 09:59:46;;;;;;;2.92;2.00;;;23.80;99.90;;;;;;5072880;28;20207;-65
2021/07/30 10:02:16;;;;;;;3.60;1.90;;;23.80;99.90;;;;;;5072977;28;20248;-64
2021/07/30 10:04:46;;;;;;;3.13;2.13;;;23.90;99.90;;;;;;5073111;28;20181;-65
2021/07/30 10:07:17;;;;;;;4.35;2.20;;;23.90;99.90;;;;;;5073309;28;20205;-65
2021/07/30 10:10:02;;;;;;;2.95;2.28;;;23.70;99.90;;;;;;5073166;28;20185;-64
2021/07/30 10:12:32;;;;;;;3.22;2.03;;;23.60;99.90;;;;;;5072825;28;20196;-64
2021/07/30 10:15:01;;;;;;;2.30;2.08;;;23.60;99.90;;;;;;5072388;28;20226;-64
2021/07/30 10:17:31;;;;;;;3.60;2.20;;;23.70;99.90;;;;;;5072866;28;20236;-64
2021/07/30 10:20:02;;;;;;;3.45;2.20;;;23.90;99.90;;;;;;5072848;28;20207;-65
2021/07/30 10:22:41;;;;;;;3.65;2.47;;;24.10;99.90;;;;;;5072742;28;20300;-64
2021/07/30 10:25:12;;;;;;;2.85;2.20;;;24.30;99.90;;;;;;5072784;28;20195;-64
2021/07/30 10:27:43;;;;;;;4.15;2.40;;;24.50;99.90;;;;;;5073348;28;20192;-65
2021/07/30 10:30:15;;;;;;;3.10;2.17;;;24.60;99.90;;;;;;5077258;28;20251;-65
2021/07/30 10:32:48;;;;;;;4.45;3.00;;;24.80;99.90;;;;;;5076642;28;20185;-65
2021/07/30 10:35:18;;;;;;;2.50;2.25;;;25.20;99.90;;;;;;5075655;28;20272;-65
2021/07/30 10:37:47;;;;;;;3.10;2.60;;;25.20;99.90;;;;;;5072746;28;20247;-64
2021/07/30 10:40:17;;;;;;;3.47;2.63;;;25.30;99.90;;;;;;5072993;28;20207;-64
2021/07/30 10:43:02;;;;;;;3.13;2.20;;;25.40;99.90;;;;;;5072663;28;20625;-65
2021/07/30 10:45:30;;;;;;;4.30;2.08;;;25.50;99.90;;;;;;5072161;28;20486;-64
2021/07/30 10:48:35;;;;;;;2.97;2.78;;;25.30;99.90;;;;;;5072509;28;20223;-64
2021/07/30 10:51:23;;;;;;;3.28;2.38;;;25.10;99.90;;;;;;5072355;28;20639;-65
2021/07/30 10:53:57;;;;;;;3.67;2.50;;;25.00;99.90;;;;;;5072165;28;20215;-65
2021/07/30 10:56:46;;;;;;;5.32;3.17;;;24.90;99.90;;;;;;5072163;28;20224;-66
2021/07/30 10:59:14;;;;;;;4.20;2.63;;;24.80;99.90;;;;;;5071820;28;20617;-65
2021/07/30 11:02:01;;;;;;;3.40;2.22;;;24.70;99.90;;;;;;5072048;28;20224;-64
2021/07/30 11:04:30;;;;;;;2.75;2.30;;;24.70;99.90;;;;;;5071326;28;20537;-66
2021/07/30 11:07:00;;;;;;;4.03;3.40;;;24.60;99.90;;;;;;5072131;28;20205;-66
2021/07/30 11:09:37;;;;;;;6.25;2.30;;;24.80;99.90;;;;;;5071664;28;20201;-64
2021/07/30 11:12:07;;;;;;;2.22;1.95;;;24.90;99.90;;;;;;5072147;28;20227;-66
2021/07/30 11:14:36;;;;;;;2.40;2.20;;;24.90;99.90;;;;;;5071732;28;20201;-65
2021/07/30 11:17:06;;;;;;;5.03;2.10;;;24.80;99.90;;;;;;5071822;28;20201;-64
2021/07/30 11:19:36;;;;;;;2.58;2.10;;;25.00;99.90;;;;;;5072060;28;20208;-66
2021/07/30 11:22:05;;;;;;;2.45;2.08;;;25.20;99.90;;;;;;5072051;28;20252;-65
2021/07/30 11:24:39;;;;;;;2.88;2.15;;;25.10;99.90;;;;;;5071829;28;20254;-66
2021/07/30 11:27:08;;;;;;;2.67;1.95;;;25.00;99.90;;;;;;5071853;28;20212;-65
2021/07/30 11:29:36;;;;;;;4.30;2.35;;;25.10;99.90;;;;;;5071353;28;20211;-65
2021/07/30 11:32:05;;;;;;;2.53;2.33;;;25.20;99.90;;;;;;5071848;28;20284;-65
2021/07/30 11:34:35;;;;;;;3.35;2.00;;;25.20;99.90;;;;;;5072101;28;20262;-65
2021/07/30 11:37:05;;;;;;;4.72;2.50;;;25.20;99.90;;;;;;5071891;28;20554;-67
2021/07/30 11:39:38;;;;;;;4.90;2.78;;;25.20;99.90;;;;;;5071974;28;20184;-65
2021/07/30 11:42:09;;;;;;;3.88;2.30;;;25.20;99.90;;;;;;5071578;28;20324;-68
2021/07/30 11:44:46;;;;;;;2.30;2.10;;;25.20;99.90;;;;;;5071230;28;20229;-65
2021/07/30 11:47:15;;;;;;;2.40;2.20;;;25.00;99.90;;;;;;5071557;28;20188;-65
2021/07/30 11:49:44;;;;;;;3.40;1.60;;;24.90;99.90;;;;;;5071691;28;20219;-65
2021/07/30 11:52:20;;;;;;;4.57;2.22;;;25.00;99.90;;;;;;5071789;28;20529;-64
2021/07/30 11:54:49;;;;;;;4.30;2.05;;;25.20;99.90;;;;;;5071548;28;20184;-65
2021/07/30 11:57:28;;;;;;;2.20;1.90;;;25.40;99.90;;;;;;5071334;28;20240;-64
2021/07/30 11:59:57;;;;;;;5.18;2.40;;;25.40;99.90;;;;;;5071215;28;20181;-65
2021/07/30 12:02:26;;;;;;;2.67;2.20;;;25.30;99.90;;;;;;5071168;28;20221;-64
2021/07/30 12:04:57;;;;;;;2.47;2.28;;;25.40;99.90;;;;;;5071651;28;20283;-65
2021/07/30 12:07:27;;;;;;;3.65;2.03;;;25.40;99.90;;;;;;5071491;28;20703;-64
2021/07/30 12:09:58;;;;;;;3.38;2.22;;;25.60;99.90;;;;;;5071663;28;20196;-64
2021/07/30 12:12:31;;;;;;;3.38;2.25;;;25.70;99.90;;;;;;5071642;28;20181;-65
2021/07/30 12:15:00;;;;;;;3.45;2.50;;;25.60;99.90;;;;;;5072068;28;20181;-65
2021/07/30 12:17:30;;;;;;;2.20;1.88;;;25.70;99.90;;;;;;5075278;28;20304;-63
2021/07/30 12:20:01;;;;;;;2.63;2.03;;;25.50;99.90;;;;;;5075229;28;20239;-65
2021/07/30 12:22:38;;;;;;;3.85;1.90;;;25.40;99.90;;;;;;5074929;28;20215;-64
2021/07/30 12:25:07;;;;;;;5.60;2.50;;;25.10;99.90;;;;;;5075185;28;20276;-63
2021/07/30 12:27:37;;;;;;;4.47;2.20;;;25.20;99.90;;;;;;5074742;28;20647;-64
2021/07/30 12:30:06;;;;;;;2.70;1.90;;;25.20;99.90;;;;;;5074589;28;20295;-65
2021/07/30 12:32:39;;;;;;;2.63;1.98;;;25.30;99.90;;;;;;5075089;28;20197;-64
2021/07/30 12:35:11;;;;;;;2.75;1.95;;;25.40;99.90;;;;;;5074971;28;20208;-64
2021/07/30 12:38:04;;;;;;;3.85;2.20;;;25.50;99.90;;;;;;5074873;28;20201;-64
2021/07/30 12:40:33;;;;;;;5.35;2.70;;;25.60;99.90;;;;;;5074624;28;20234;-64
2021/07/30 12:43:18;;;;;;;3.13;2.10;;;25.60;99.90;;;;;;5074399;28;20228;-64
2021/07/30 12:45:48;;;;;;;5.35;3.78;;;25.80;99.90;;;;;;5074409;28;20193;-63
2021/07/30 12:48:18;;;;;;;4.22;2.17;;;25.90;99.90;;;;;;5074546;28;20187;-65
2021/07/30 12:50:47;;;;;;;5.32;2.40;;;26.00;99.90;;;;;;5074195;28;20706;-65
2021/07/30 12:53:17;;;;;;;7.20;2.70;;;26.20;99.90;;;;;;5074566;28;20291;-64
2021/07/30 12:56:05;;;;;;;2.40;2.20;;;26.20;99.90;;;;;;5076022;28;20299;-65
2021/07/30 12:58:35;;;;;;;3.20;2.15;;;26.40;99.90;;;;;;5074235;28;20617;-64
2021/07/30 13:01:11;;;;;;;4.53;2.28;;;26.40;99.90;;;;;;5074634;28;20280;-64